Other Surface Observations
Issued by NWS Great Falls, MT

Home | Current Version | Previous Version | Text Only | Print | Product List | Glossary On
Versions: 1 2 3 4 5 6 7 8 9 10 11 12 13 14 15 16 17 18 19 20 21 22 23 24 25 26 27 28 29 30 31 32 33 34 35 36 37 38 39 40 41 42 43 44 45 46 47 48 49 50
000
SXUS55 KTFX 221329
OSOTFX

AREA AWOS OBSERVATIONS
NATIONAL WEATHER SERVICE GREAT FALLS MT
0729 AM MDT Sun Apr 22 2018

METAR K3U3 221328Z AUTO 24004KT M01/M04 A3021
METAR KS71 221329Z AUTO 02000KT 10SM 04/01 A3016
METAR K38S 221329Z AUTO 19000KT 10SM M01/M04 A3023
METAR K6S5 221328Z AUTO 15000 10SM 01/M03 A3023
METAR K1S3 221328Z AUTO 27004KT 07/M01 A3019
METAR KPWD 221328Z AUTO 30000KT 10SM 04/M02 A3012
METAR KPO1 221328Z AUTO 24003KT  10SM 05/M02 A3015



USA.gov is the U.S. government's official web portal to all federal, state and local government web resources and services.